sensor_id;sensor_type;location;lat;lon;timestamp;pressure;altitude;pressure_sealevel;temperature;humidity
77639;BME280;66802;52.574;14.398;2023-02-28T00:00:23;103244.22;;;0.42;74.77
77639;BME280;66802;52.574;14.398;2023-02-28T00:02:49;103250.47;;;0.39;74.77
77639;BME280;66802;52.574;14.398;2023-02-28T00:05:17;103248.72;;;0.38;74.83
77639;BME280;66802;52.574;14.398;2023-02-28T00:07:43;103248.66;;;0.41;75.16
77639;BME280;66802;52.574;14.398;2023-02-28T00:10:13;103244.28;;;0.39;74.63
77639;BME280;66802;52.574;14.398;2023-02-28T00:12:39;103253.13;;;0.39;74.90
77639;BME280;66802;52.574;14.398;2023-02-28T00:15:06;103253.84;;;0.47;74.64
77639;BME280;66802;52.574;14.398;2023-02-28T00:17:32;103253.94;;;0.43;74.49
77639;BME280;66802;52.574;14.398;2023-02-28T00:19:58;103257.53;;;0.40;74.51
77639;BME280;66802;52.574;14.398;2023-02-28T00:22:42;103253.16;;;0.36;74.62
77639;BME280;66802;52.574;14.398;2023-02-28T00:25:10;103248.84;;;0.30;74.83
77639;BME280;66802;52.574;14.398;2023-02-28T00:27:38;103255.94;;;0.30;74.84
77639;BME280;66802;52.574;14.398;2023-02-28T00:30:06;103256.91;;;0.24;75.02
77639;BME280;66802;52.574;14.398;2023-02-28T00:32:32;103248.97;;;0.23;75.33
77639;BME280;66802;52.574;14.398;2023-02-28T00:34:57;103257.00;;;0.20;74.95
77639;BME280;66802;52.574;14.398;2023-02-28T00:37:23;103253.50;;;0.18;75.06
77639;BME280;66802;52.574;14.398;2023-02-28T00:39:49;103255.16;;;0.23;75.16
77639;BME280;66802;52.574;14.398;2023-02-28T00:42:14;103256.94;;;0.23;74.58
77639;BME280;66802;52.574;14.398;2023-02-28T00:44:40;103259.69;;;0.18;74.89
77639;BME280;66802;52.574;14.398;2023-02-28T00:47:05;103257.94;;;0.16;74.93
77639;BME280;66802;52.574;14.398;2023-02-28T00:49:31;103257.16;;;0.11;75.00
77639;BME280;66802;52.574;14.398;2023-02-28T00:51:57;103262.53;;;0.08;75.03
77639;BME280;66802;52.574;14.398;2023-02-28T00:54:23;103250.03;;;0.11;74.73
77639;BME280;66802;52.574;14.398;2023-02-28T00:56:49;103253.63;;;0.10;74.48
77639;BME280;66802;52.574;14.398;2023-02-28T00:59:16;103248.44;;;0.01;74.41
77639;BME280;66802;52.574;14.398;2023-02-28T05:02:30;103275.78;;;-2.21;75.93
77639;BME280;66802;52.574;14.398;2023-02-28T05:04:56;103281.97;;;-2.23;75.32
77639;BME280;66802;52.574;14.398;2023-02-28T05:07:22;103282.91;;;-2.29;75.46
77639;BME280;66802;52.574;14.398;2023-02-28T05:09:47;103297.03;;;-2.31;75.86
77639;BME280;66802;52.574;14.398;2023-02-28T05:12:13;103291.72;;;-2.33;75.69
77639;BME280;66802;52.574;14.398;2023-02-28T05:14:39;103289.09;;;-2.34;75.33
77639;BME280;66802;52.574;14.398;2023-02-28T05:17:04;103300.56;;;-2.37;75.36
77639;BME280;66802;52.574;14.398;2023-02-28T05:19:30;103304.09;;;-2.38;75.43
77639;BME280;66802;52.574;14.398;2023-02-28T05:21:55;103299.69;;;-2.37;76.01
77639;BME280;66802;52.574;14.398;2023-02-28T05:24:21;103305.91;;;-2.41;75.17
77639;BME280;66802;52.574;14.398;2023-02-28T05:26:52;103311.19;;;-2.44;75.99
77639;BME280;66802;52.574;14.398;2023-02-28T05:29:18;103307.66;;;-2.42;76.37
77639;BME280;66802;52.574;14.398;2023-02-28T05:31:44;103312.06;;;-2.44;76.30
77639;BME280;66802;52.574;14.398;2023-02-28T05:34:10;103312.97;;;-2.46;76.65
77639;BME280;66802;52.574;14.398;2023-02-28T05:36:38;103306.78;;;-2.47;76.93
77639;BME280;66802;52.574;14.398;2023-02-28T05:39:07;103312.13;;;-2.50;76.82
77639;BME280;66802;52.574;14.398;2023-02-28T05:41:39;103312.13;;;-2.50;76.27
77639;BME280;66802;52.574;14.398;2023-02-28T05:44:05;103308.59;;;-2.49;76.09
77639;BME280;66802;52.574;14.398;2023-02-28T05:46:31;103307.72;;;-2.49;76.22
77639;BME280;66802;52.574;14.398;2023-02-28T05:48:56;103312.13;;;-2.51;76.02
77639;BME280;66802;52.574;14.398;2023-02-28T05:51:25;103309.47;;;-2.54;75.93
77639;BME280;66802;52.574;14.398;2023-02-28T05:53:50;103311.25;;;-2.52;75.53
77639;BME280;66802;52.574;14.398;2023-02-28T05:56:16;103319.19;;;-2.53;75.64
77639;BME280;66802;52.574;14.398;2023-02-28T05:58:41;103322.72;;;-2.53;75.24
77639;BME280;66802;52.574;14.398;2023-02-28T06:03:59;103322.72;;;-2.56;75.59
77639;BME280;66802;52.574;14.398;2023-02-28T06:06:25;103317.44;;;-2.58;75.30
77639;BME280;66802;52.574;14.398;2023-02-28T06:08:51;103314.81;;;-2.62;74.73
77639;BME280;66802;52.574;14.398;2023-02-28T06:11:16;103326.28;;;-2.60;75.04
77639;BME280;66802;52.574;14.398;2023-02-28T06:13:42;103320.09;;;-2.62;74.74
77639;BME280;66802;52.574;14.398;2023-02-28T06:16:10;103321.00;;;-2.65;74.39
77639;BME280;66802;52.574;14.398;2023-02-28T06:18:36;103329.81;;;-2.67;75.28
77639;BME280;66802;52.574;14.398;2023-02-28T06:21:02;103328.97;;;-2.71;75.30
77639;BME280;66802;52.574;14.398;2023-02-28T06:23:27;103328.94;;;-2.69;75.51
77639;BME280;66802;52.574;14.398;2023-02-28T06:25:53;103329.81;;;-2.70;74.89
77639;BME280;66802;52.574;14.398;2023-02-28T06:28:21;103336.00;;;-2.71;75.38
77639;BME280;66802;52.574;14.398;2023-02-28T06:30:46;103340.41;;;-2.72;75.42
77639;BME280;66802;52.574;14.398;2023-02-28T06:33:12;103340.41;;;-2.73;75.96
77639;BME280;66802;52.574;14.398;2023-02-28T06:35:38;103341.31;;;-2.74;76.47
77639;BME280;66802;52.574;14.398;2023-02-28T06:38:03;103337.78;;;-2.75;75.54
77639;BME280;66802;52.574;14.398;2023-02-28T06:40:29;103341.31;;;-2.76;76.13
77639;BME280;66802;52.574;14.398;2023-02-28T06:42:59;103351.88;;;-2.73;75.92
77639;BME280;66802;52.574;14.398;2023-02-28T06:45:25;103354.50;;;-2.74;76.29
77639;BME280;66802;52.574;14.398;2023-02-28T06:47:51;103354.50;;;-2.74;76.67
77639;BME280;66802;52.574;14.398;2023-02-28T06:50:17;103358.91;;;-2.72;76.06
77639;BME280;66802;52.574;14.398;2023-02-28T06:52:44;103360.66;;;-2.68;75.92
77639;BME280;66802;52.574;14.398;2023-02-28T06:55:10;103367.69;;;-2.67;76.90
77639;BME280;66802;52.574;14.398;2023-02-28T06:57:36;103366.81;;;-2.69;77.13
77639;BME280;66802;52.574;14.398;2023-02-28T07:00:07;103362.41;;;-2.70;77.17
77639;BME280;66802;52.574;14.398;2023-02-28T07:02:37;103354.47;;;-2.68;77.18
77639;BME280;66802;52.574;14.398;2023-02-28T07:05:04;103360.66;;;-2.66;78.03
77639;BME280;66802;52.574;14.398;2023-02-28T07:07:30;103361.53;;;-2.63;78.05
77639;BME280;66802;52.574;14.398;2023-02-28T07:09:56;103362.41;;;-2.62;78.83
77639;BME280;66802;52.574;14.398;2023-02-28T07:12:21;103354.44;;;-2.59;79.01
77639;BME280;66802;52.574;14.398;2023-02-28T07:14:47;103362.38;;;-2.54;78.92
77639;BME280;66802;52.574;14.398;2023-02-28T07:17:13;103356.19;;;-2.53;78.73
77639;BME280;66802;52.574;14.398;2023-02-28T07:19:39;103350.88;;;-2.46;79.13
77639;BME280;66802;52.574;14.398;2023-02-28T07:22:05;103365.84;;;-2.43;80.09
77639;BME280;66802;52.574;14.398;2023-02-28T07:24:31;103364.91;;;-2.35;79.20
77639;BME280;66802;52.574;14.398;2023-02-28T07:26:57;103361.38;;;-2.31;79.68
77639;BME280;66802;52.574;14.398;2023-02-28T07:29:22;103369.28;;;-2.23;79.52
77639;BME280;66802;52.574;14.398;2023-02-28T07:31:48;103366.63;;;-2.18;80.04
77639;BME280;66802;52.574;14.398;2023-02-28T07:34:15;103373.59;;;-2.08;80.17
77639;BME280;66802;52.574;14.398;2023-02-28T07:36:41;103366.50;;;-2.00;80.30
77639;BME280;66802;52.574;14.398;2023-02-28T07:39:07;103371.72;;;-1.90;79.49
77639;BME280;66802;52.574;14.398;2023-02-28T07:41:35;103370.78;;;-1.83;79.61
77639;BME280;66802;52.574;14.398;2023-02-28T07:44:04;103376.03;;;-1.73;79.80
77639;BME280;66802;52.574;14.398;2023-02-28T07:46:30;103371.50;;;-1.61;80.06
77639;BME280;66802;52.574;14.398;2023-02-28T07:49:01;103370.59;;;-1.57;80.37
77639;BME280;66802;52.574;14.398;2023-02-28T07:51:29;103366.09;;;-1.49;79.61
77639;BME280;66802;52.574;14.398;2023-02-28T07:53:55;103373.97;;;-1.38;79.28
77639;BME280;66802;52.574;14.398;2023-02-28T07:56:21;103375.69;;;-1.32;79.30
77639;BME280;66802;52.574;14.398;2023-02-28T07:58:46;103372.00;;;-1.16;78.40
77639;BME280;66802;52.574;14.398;2023-02-28T08:01:12;103373.72;;;-1.09;78.22
77639;BME280;66802;52.574;14.398;2023-02-28T08:03:39;103383.34;;;-0.99;78.61
77639;BME280;66802;52.574;14.398;2023-02-28T08:06:08;103369.00;;;-0.83;78.34
77639;BME280;66802;52.574;14.398;2023-02-28T08:08:39;103368.03;;;-0.76;78.09
77639;BME280;66802;52.574;14.398;2023-02-28T08:11:05;103371.47;;;-0.66;78.04
77639;BME280;66802;52.574;14.398;2023-02-28T08:13:31;103373.97;;;-0.54;77.52
77639;BME280;66802;52.574;14.398;2023-02-28T08:15:56;103367.59;;;-0.39;76.84
77639;BME280;66802;52.574;14.398;2023-02-28T08:18:23;103367.31;;;-0.19;77.00
77639;BME280;66802;52.574;14.398;2023-02-28T08:20:49;103372.50;;;-0.10;76.44
77639;BME280;66802;52.574;14.398;2023-02-28T08:23:15;103374.94;;;0.07;75.72
77639;BME280;66802;52.574;14.398;2023-02-28T08:25:40;103369.53;;;0.11;75.33
77639;BME280;66802;52.574;14.398;2023-02-28T08:28:06;103365.94;;;0.17;76.05
77639;BME280;66802;52.574;14.398;2023-02-28T08:30:31;103368.28;;;0.36;75.26
77639;BME280;66802;52.574;14.398;2023-02-28T08:32:57;103374.22;;;0.52;74.99
77639;BME280;66802;52.574;14.398;2023-02-28T08:35:23;103368.72;;;0.64;74.96
77639;BME280;66802;52.574;14.398;2023-02-28T08:37:49;103375.47;;;0.84;74.09
77639;BME280;66802;52.574;14.398;2023-02-28T08:40:16;103368.38;;;0.84;74.26
77639;BME280;66802;52.574;14.398;2023-02-28T08:42:47;103367.28;;;0.94;74.42
77639;BME280;66802;52.574;14.398;2023-02-28T08:45:14;103374.19;;;1.04;74.20
77639;BME280;66802;52.574;14.398;2023-02-28T08:47:41;103362.41;;;1.18;73.97
77639;BME280;66802;52.574;14.398;2023-02-28T08:50:07;103361.34;;;1.28;74.71
77639;BME280;66802;52.574;14.398;2023-02-28T08:52:33;103363.53;;;1.51;73.27
77639;BME280;66802;52.574;14.398;2023-02-28T08:54:58;103364.19;;;1.62;72.69
77639;BME280;66802;52.574;14.398;2023-02-28T08:57:24;103370.94;;;1.76;72.55
77639;BME280;66802;52.574;14.398;2023-02-28T08:59:52;103370.19;;;1.71;71.73
77639;BME280;66802;52.574;14.398;2023-02-28T09:02:18;103376.03;;;1.87;71.35
77639;BME280;66802;52.574;14.398;2023-02-28T09:04:44;103372.19;;;2.00;70.50
77639;BME280;66802;52.574;14.398;2023-02-28T09:07:12;103373.16;;;1.96;70.34
77639;BME280;66802;52.574;14.398;2023-02-28T09:09:38;103368.41;;;2.10;70.38
77639;BME280;66802;52.574;14.398;2023-02-28T09:12:22;103361.94;;;2.22;70.91
77639;BME280;66802;52.574;14.398;2023-02-28T09:14:49;103369.69;;;2.31;70.73
77639;BME280;66802;52.574;14.398;2023-02-28T09:17:14;103369.50;;;2.39;69.64
77639;BME280;66802;52.574;14.398;2023-02-28T09:19:40;103367.41;;;2.51;70.18
77639;BME280;66802;52.574;14.398;2023-02-28T09:22:06;103365.41;;;2.61;66.47
77639;BME280;66802;52.574;14.398;2023-02-28T09:24:32;103371.22;;;2.77;64.69
77639;BME280;66802;52.574;14.398;2023-02-28T09:26:57;103364.63;;;2.91;63.25
77639;BME280;66802;52.574;14.398;2023-02-28T09:29:23;103366.59;;;2.83;63.56
77639;BME280;66802;52.574;14.398;2023-02-28T09:31:49;103370.19;;;2.82;63.70
77639;BME280;66802;52.574;14.398;2023-02-28T09:34:15;103370.03;;;2.88;64.76
77639;BME280;66802;52.574;14.398;2023-02-28T09:36:42;103371.31;;;3.06;64.39
77639;BME280;66802;52.574;14.398;2023-02-28T09:39:08;103365.56;;;3.23;64.00
77639;BME280;66802;52.574;14.398;2023-02-28T09:41:44;103367.16;;;3.28;63.70
77639;BME280;66802;52.574;14.398;2023-02-28T09:46:59;103374.31;;;3.57;63.50
77639;BME280;66802;52.574;14.398;2023-02-28T09:49:43;103372.94;;;3.75;62.49
77639;BME280;66802;52.574;14.398;2023-02-28T09:52:17;103373.44;;;3.88;59.77
77639;BME280;66802;52.574;14.398;2023-02-28T09:54:45;103376.47;;;3.76;57.55
77639;BME280;66802;52.574;14.398;2023-02-28T09:57:21;103377.44;;;3.73;58.62
77639;BME280;66802;52.574;14.398;2023-02-28T10:00:18;103373.81;;;3.76;58.78
77639;BME280;66802;52.574;14.398;2023-02-28T10:05:24;103371.72;;;3.85;56.15
77639;BME280;66802;52.574;14.398;2023-02-28T10:10:48;103364.63;;;4.12;57.40
77639;BME280;66802;52.574;14.398;2023-02-28T10:16:17;103366.22;;;4.19;48.56
77639;BME280;66802;52.574;14.398;2023-02-28T10:18:56;103358.50;;;4.10;49.42
77639;BME280;66802;52.574;14.398;2023-02-28T10:21:36;103369.47;;;4.29;52.71
77639;BME280;66802;52.574;14.398;2023-02-28T10:26:59;103358.69;;;4.58;53.81
77639;BME280;66802;52.574;14.398;2023-02-28T10:29:27;103351.13;;;4.71;51.08
77639;BME280;66802;52.574;14.398;2023-02-28T10:31:53;103353.19;;;4.88;49.66
77639;BME280;66802;52.574;14.398;2023-02-28T10:34:19;103357.38;;;4.96;48.72
77639;BME280;66802;52.574;14.398;2023-02-28T10:36:45;103356.00;;;5.09;47.13
77639;BME280;66802;52.574;14.398;2023-02-28T10:39:41;103349.03;;;5.05;47.40
77639;BME280;66802;52.574;14.398;2023-02-28T10:42:23;103345.63;;;5.00;49.18
77639;BME280;66802;52.574;14.398;2023-02-28T10:45:20;103343.44;;;5.11;47.00
77639;BME280;66802;52.574;14.398;2023-02-28T10:53:07;103333.41;;;4.93;49.78
77639;BME280;66802;52.574;14.398;2023-02-28T10:55:36;103338.69;;;4.95;47.68
77639;BME280;66802;52.574;14.398;2023-02-28T10:58:01;103338.25;;;4.82;47.26
77639;BME280;66802;52.574;14.398;2023-02-28T11:00:33;103339.69;;;4.92;47.21
77639;BME280;66802;52.574;14.398;2023-02-28T11:03:00;103347.19;;;4.81;48.58
77639;BME280;66802;52.574;14.398;2023-02-28T11:05:35;103350.09;;;4.75;48.41
77639;BME280;66802;52.574;14.398;2023-02-28T11:08:13;103345.44;;;4.80;48.39
77639;BME280;66802;52.574;14.398;2023-02-28T11:10:39;103347.19;;;4.81;48.07
77639;BME280;66802;52.574;14.398;2023-02-28T11:13:17;103343.59;;;4.82;47.81
77639;BME280;66802;52.574;14.398;2023-02-28T11:15:52;103342.59;;;4.86;49.35
77639;BME280;66802;52.574;14.398;2023-02-28T11:18:30;103343.59;;;4.82;49.86
77639;BME280;66802;52.574;14.398;2023-02-28T11:21:02;103341.44;;;4.93;48.40
77639;BME280;66802;52.574;14.398;2023-02-28T11:23:32;103340.75;;;5.11;49.08
77639;BME280;66802;52.574;14.398;2023-02-28T11:26:03;103343.28;;;5.16;47.81
77639;BME280;66802;52.574;14.398;2023-02-28T11:28:34;103343.97;;;5.21;48.30
77639;BME280;66802;52.574;14.398;2023-02-28T11:31:17;103334.69;;;5.31;48.15
77639;BME280;66802;52.574;14.398;2023-02-28T11:33:53;103342.41;;;5.40;47.33
77639;BME280;66802;52.574;14.398;2023-02-28T11:36:29;103336.47;;;5.31;47.40
77639;BME280;66802;52.574;14.398;2023-02-28T11:39:11;103332.34;;;5.22;48.41
77639;BME280;66802;52.574;14.398;2023-02-28T11:44:29;103326.00;;;5.25;48.73
77639;BME280;66802;52.574;14.398;2023-02-28T11:47:04;103324.19;;;5.25;48.42
77639;BME280;66802;52.574;14.398;2023-02-28T11:50:03;103324.53;;;5.16;48.48
77639;BME280;66802;52.574;14.398;2023-02-28T11:52:59;103313.88;;;5.14;47.58
77639;BME280;66802;52.574;14.398;2023-02-28T11:55:27;103311.59;;;5.04;47.92
77639;BME280;66802;52.574;14.398;2023-02-28T12:06:18;103301.31;;;5.17;47.13
77639;BME280;66802;52.574;14.398;2023-02-28T12:12:14;103286.88;;;5.21;48.46
77639;BME280;66802;52.574;14.398;2023-02-28T12:20:24;103273.84;;;5.35;46.30
77639;BME280;66802;52.574;14.398;2023-02-28T12:29:04;103271.81;;;5.18;49.01
77639;BME280;66802;52.574;14.398;2023-02-28T12:31:45;103262.56;;;5.27;47.80
77639;BME280;66802;52.574;14.398;2023-02-28T12:34:20;103266.69;;;5.35;46.47
77639;BME280;66802;52.574;14.398;2023-02-28T12:36:52;103256.03;;;5.34;46.57
77639;BME280;66802;52.574;14.398;2023-02-28T12:39:26;103248.28;;;5.26;46.89
77639;BME280;66802;52.574;14.398;2023-02-28T12:41:59;103241.47;;;5.41;46.08
77639;BME280;66802;52.574;14.398;2023-02-28T12:44:37;103243.03;;;5.46;45.46
77639;BME280;66802;52.574;14.398;2023-02-28T12:47:14;103236.00;;;5.44;45.50
77639;BME280;66802;52.574;14.398;2023-02-28T12:49:55;103232.00;;;5.54;44.21
77639;BME280;66802;52.574;14.398;2023-02-28T12:52:54;103230.41;;;5.50;45.74
77639;BME280;66802;52.574;14.398;2023-02-28T12:55:48;103225.84;;;5.52;46.20
77639;BME280;66802;52.574;14.398;2023-02-28T12:58:36;103218.13;;;5.44;43.86
77639;BME280;66802;52.574;14.398;2023-02-28T13:09:19;103219.00;;;5.45;43.42
77639;BME280;66802;52.574;14.398;2023-02-28T13:11:48;103220.28;;;5.35;42.65
77639;BME280;66802;52.574;14.398;2023-02-28T13:14:29;103224.00;;;5.31;43.93
77639;BME280;66802;52.574;14.398;2023-02-28T13:19:24;103222.84;;;5.14;44.09
77639;BME280;66802;52.574;14.398;2023-02-28T13:21:51;103229.13;;;5.13;43.35
77639;BME280;66802;52.574;14.398;2023-02-28T13:24:47;103224.72;;;5.12;44.79
77639;BME280;66802;52.574;14.398;2023-02-28T13:29:43;103224.59;;;5.16;44.51
77639;BME280;66802;52.574;14.398;2023-02-28T13:34:40;103233.03;;;5.05;44.73
77639;BME280;66802;52.574;14.398;2023-02-28T13:48:01;103216.16;;;5.03;45.91
77639;BME280;66802;52.574;14.398;2023-02-28T13:50:37;103213.19;;;5.10;45.96
77639;BME280;66802;52.574;14.398;2023-02-28T13:56:23;103208.19;;;5.25;44.58
77639;BME280;66802;52.574;14.398;2023-02-28T13:59:04;103212.81;;;5.20;44.82
77639;BME280;66802;52.574;14.398;2023-02-28T14:04:06;103202.53;;;5.09;46.03
77639;BME280;66802;52.574;14.398;2023-02-28T14:06:39;103202.41;;;5.12;45.80
77639;BME280;66802;52.574;14.398;2023-02-28T14:11:39;103209.13;;;5.24;45.74
77639;BME280;66802;52.574;14.398;2023-02-28T14:14:08;103214.25;;;5.06;44.88
77639;BME280;66802;52.574;14.398;2023-02-28T14:16:54;103205.50;;;5.01;45.38
77639;BME280;66802;52.574;14.398;2023-02-28T14:19:26;103206.28;;;5.05;45.34
77639;BME280;66802;52.574;14.398;2023-02-28T14:25:16;103202.25;;;4.93;44.83
77639;BME280;66802;52.574;14.398;2023-02-28T14:31:10;103202.94;;;4.98;45.52
77639;BME280;66802;52.574;14.398;2023-02-28T14:33:57;103189.91;;;4.89;46.86
77639;BME280;66802;52.574;14.398;2023-02-28T14:36:32;103186.16;;;4.95;46.22
77639;BME280;66802;52.574;14.398;2023-02-28T14:39:14;103184.50;;;4.91;45.25
77639;BME280;66802;52.574;14.398;2023-02-28T14:41:42;103182.50;;;4.97;46.39
77639;BME280;66802;52.574;14.398;2023-02-28T14:46:46;103175.50;;;4.93;46.57
77639;BME280;66802;52.574;14.398;2023-02-28T14:49:29;103170.25;;;4.90;45.82
77639;BME280;66802;52.574;14.398;2023-02-28T14:52:26;103172.25;;;4.85;44.45
77639;BME280;66802;52.574;14.398;2023-02-28T14:54:56;103170.50;;;4.84;45.39
77639;BME280;66802;52.574;14.398;2023-02-28T14:57:29;103170.50;;;4.84;44.98
77639;BME280;66802;52.574;14.398;2023-02-28T15:02:37;103168.78;;;4.82;45.70
77639;BME280;66802;52.574;14.398;2023-02-28T15:07:38;103163.78;;;4.72;46.16
77639;BME280;66802;52.574;14.398;2023-02-28T15:10:20;103156.84;;;4.67;45.72
77639;BME280;66802;52.574;14.398;2023-02-28T15:13:01;103158.25;;;4.77;45.61
77639;BME280;66802;52.574;14.398;2023-02-28T15:20:44;103162.91;;;4.72;42.88
77639;BME280;66802;52.574;14.398;2023-02-28T15:23:11;103163.22;;;4.64;44.92
77639;BME280;66802;52.574;14.398;2023-02-28T15:25:39;103150.81;;;4.62;45.43
77639;BME280;66802;52.574;14.398;2023-02-28T15:28:05;103156.91;;;4.65;44.61
77639;BME280;66802;52.574;14.398;2023-02-28T15:30:35;103151.63;;;4.64;44.73
77639;BME280;66802;52.574;14.398;2023-02-28T15:33:29;103156.38;;;4.56;44.82
77639;BME280;66802;52.574;14.398;2023-02-28T15:38:36;103160.31;;;4.46;44.59
77639;BME280;66802;52.574;14.398;2023-02-28T15:41:03;103154.91;;;4.47;45.45
77639;BME280;66802;52.574;14.398;2023-02-28T15:43:38;103162.00;;;4.48;44.69
77639;BME280;66802;52.574;14.398;2023-02-28T15:46:11;103163.75;;;4.49;46.37
77639;BME280;66802;52.574;14.398;2023-02-28T15:51:33;103156.34;;;4.32;46.73
77639;BME280;66802;52.574;14.398;2023-02-28T15:54:04;103163.22;;;4.39;46.83
77639;BME280;66802;52.574;14.398;2023-02-28T15:56:32;103156.03;;;4.42;45.88
77639;BME280;66802;52.574;14.398;2023-02-28T15:59:03;103161.72;;;4.32;46.82
77639;BME280;66802;52.574;14.398;2023-02-28T16:01:35;103152.00;;;4.30;47.15
77639;BME280;66802;52.574;14.398;2023-02-28T16:04:05;103157.19;;;4.33;47.23
77639;BME280;66802;52.574;14.398;2023-02-28T16:06:41;103155.78;;;4.23;46.60
77639;BME280;66802;52.574;14.398;2023-02-28T16:09:13;103163.97;;;4.18;46.46
77639;BME280;66802;52.574;14.398;2023-02-28T16:11:45;103163.16;;;4.16;47.06
77639;BME280;66802;52.574;14.398;2023-02-28T16:14:26;103167.91;;;4.08;47.50
77639;BME280;66802;52.574;14.398;2023-02-28T16:16:56;103161.22;;;3.95;48.25
77639;BME280;66802;52.574;14.398;2023-02-28T16:19:23;103166.00;;;3.85;48.90
77639;BME280;66802;52.574;14.398;2023-02-28T16:21:49;103161.81;;;3.78;46.67
77639;BME280;66802;52.574;14.398;2023-02-28T16:24:15;103159.31;;;3.72;46.85
77639;BME280;66802;52.574;14.398;2023-02-28T16:26:47;103161.28;;;3.67;50.03
77639;BME280;66802;52.574;14.398;2023-02-28T16:29:25;103155.34;;;3.57;50.62
77639;BME280;66802;52.574;14.398;2023-02-28T16:31:52;103160.13;;;3.48;51.03
77639;BME280;66802;52.574;14.398;2023-02-28T16:34:19;103160.38;;;3.40;51.55
77639;BME280;66802;52.574;14.398;2023-02-28T16:36:47;103163.13;;;3.37;52.95
77639;BME280;66802;52.574;14.398;2023-02-28T16:39:14;103158.91;;;3.30;53.35
77639;BME280;66802;52.574;14.398;2023-02-28T16:41:43;103167.13;;;3.24;54.69
77639;BME280;66802;52.574;14.398;2023-02-28T16:44:14;103169.09;;;3.17;54.02
77639;BME280;66802;52.574;14.398;2023-02-28T16:46:46;103164.84;;;3.12;55.13
77639;BME280;66802;52.574;14.398;2023-02-28T16:49:12;103167.66;;;3.06;55.41
77639;BME280;66802;52.574;14.398;2023-02-28T16:51:38;103161.69;;;2.98;54.98
77639;BME280;66802;52.574;14.398;2023-02-28T16:54:04;103157.47;;;2.90;54.94
77639;BME280;66802;52.574;14.398;2023-02-28T16:56:30;103159.31;;;2.88;56.12
77639;BME280;66802;52.574;14.398;2023-02-28T16:59:01;103160.31;;;2.84;56.53
77639;BME280;66802;52.574;14.398;2023-02-28T17:01:27;103157.06;;;2.73;55.47
77639;BME280;66802;52.574;14.398;2023-02-28T17:03:54;103164.41;;;2.67;55.10
77639;BME280;66802;52.574;14.398;2023-02-28T17:06:27;103164.63;;;2.59;55.81
77639;BME280;66802;52.574;14.398;2023-02-28T17:08:54;103162.13;;;2.53;55.00
77639;BME280;66802;52.574;14.398;2023-02-28T17:11:21;103164.97;;;2.47;55.99
77639;BME280;66802;52.574;14.398;2023-02-28T17:13:47;103160.63;;;2.43;56.25
77639;BME280;66802;52.574;14.398;2023-02-28T17:16:29;103166.16;;;2.35;56.50
77639;BME280;66802;52.574;14.398;2023-02-28T17:18:59;103161.00;;;2.29;56.33
77639;BME280;66802;52.574;14.398;2023-02-28T17:21:26;103164.75;;;2.22;56.73
77639;BME280;66802;52.574;14.398;2023-02-28T17:23:52;103174.59;;;2.18;57.11
77639;BME280;66802;52.574;14.398;2023-02-28T17:26:20;103171.09;;;2.16;57.58
77639;BME280;66802;52.574;14.398;2023-02-28T17:28:47;103169.47;;;2.11;58.48
77639;BME280;66802;52.574;14.398;2023-02-28T17:31:13;103167.81;;;2.07;57.50
77639;BME280;66802;52.574;14.398;2023-02-28T17:33:39;103166.78;;;2.12;56.93
77639;BME280;66802;52.574;14.398;2023-02-28T17:36:05;103163.91;;;2.20;57.27
77639;BME280;66802;52.574;14.398;2023-02-28T17:38:31;103164.09;;;2.14;57.49
77639;BME280;66802;52.574;14.398;2023-02-28T17:40:57;103177.66;;;2.05;58.26
77639;BME280;66802;52.574;14.398;2023-02-28T17:43:26;103178.69;;;1.98;58.77
77639;BME280;66802;52.574;14.398;2023-02-28T17:45:53;103167.16;;;1.97;59.32
77639;BME280;66802;52.574;14.398;2023-02-28T17:48:19;103163.84;;;1.89;59.81
77639;BME280;66802;52.574;14.398;2023-02-28T17:50:45;103170.31;;;1.79;60.25
77639;BME280;66802;52.574;14.398;2023-02-28T17:53:11;103174.13;;;1.69;60.62
77639;BME280;66802;52.574;14.398;2023-02-28T17:55:36;103176.09;;;1.61;60.79
77639;BME280;66802;52.574;14.398;2023-02-28T17:58:02;103175.31;;;1.56;61.44
77639;BME280;66802;52.574;14.398;2023-02-28T18:00:29;103176.28;;;1.52;60.81
77639;BME280;66802;52.574;14.398;2023-02-28T18:02:55;103178.22;;;1.45;61.32
77639;BME280;66802;52.574;14.398;2023-02-28T18:05:21;103183.69;;;1.40;61.23
77639;BME280;66802;52.574;14.398;2023-02-28T18:07:46;103191.75;;;1.36;61.44
77639;BME280;66802;52.574;14.398;2023-02-28T18:10:17;103195.47;;;1.29;61.71
77639;BME280;66802;52.574;14.398;2023-02-28T18:12:50;103197.38;;;1.22;61.07
77639;BME280;66802;52.574;14.398;2023-02-28T18:15:19;103197.53;;;1.16;61.77
77639;BME280;66802;52.574;14.398;2023-02-28T18:17:46;103202.94;;;1.12;61.24
77639;BME280;66802;52.574;14.398;2023-02-28T18:20:12;103199.50;;;1.08;62.42
77639;BME280;66802;52.574;14.398;2023-02-28T18:22:40;103209.19;;;1.09;62.21
77639;BME280;66802;52.574;14.398;2023-02-28T18:25:08;103206.72;;;1.00;62.30
77639;BME280;66802;52.574;14.398;2023-02-28T18:27:35;103213.94;;;0.95;62.45
77639;BME280;66802;52.574;14.398;2023-02-28T18:30:01;103219.38;;;0.89;63.21
77639;BME280;66802;52.574;14.398;2023-02-28T18:32:29;103213.25;;;0.85;63.05
77639;BME280;66802;52.574;14.398;2023-02-28T18:34:55;103216.91;;;0.80;63.22
77639;BME280;66802;52.574;14.398;2023-02-28T18:37:20;103216.97;;;0.77;63.32
77639;BME280;66802;52.574;14.398;2023-02-28T18:39:46;103217.91;;;0.74;63.40
77639;BME280;66802;52.574;14.398;2023-02-28T18:42:12;103213.38;;;0.79;63.44
77639;BME280;66802;52.574;14.398;2023-02-28T18:44:38;103217.69;;;0.85;63.48
77639;BME280;66802;52.574;14.398;2023-02-28T18:47:04;103220.22;;;0.91;62.68
77639;BME280;66802;52.574;14.398;2023-02-28T18:49:31;103213.19;;;0.88;62.76